Time;durP1;ratioP1;P1;durP2;ratioP2;P2;SDS_P1;SDS_P2;PMS_P1;PMS_P2;Temp;Humidity;BMP_temperature;BMP_pressure;BME280_temperature;BME280_humidity;BME280_pressure;Samples;Min_cycle;Max_cycle;Signal;HPM_P1;HPM_P2
2023/04/17 00:01:04;;;;;;;8.05;6.05;;;18.70;53.50;;;;;;5014168;28;20212;-80
2023/04/17 00:03:31;;;;;;;7.68;5.90;;;18.70;53.50;;;;;;5015050;28;20217;-80
2023/04/17 00:05:59;;;;;;;7.50;6.20;;;18.70;53.30;;;;;;4999681;28;20201;-80
2023/04/17 00:08:27;;;;;;;6.28;5.68;;;18.60;53.10;;;;;;5016854;28;20204;-80
2023/04/17 00:10:53;;;;;;;6.60;5.90;;;18.70;53.20;;;;;;5000486;28;20197;-80
2023/04/17 00:13:22;;;;;;;6.53;5.85;;;18.60;53.00;;;;;;5017919;28;20220;-81
2023/04/17 00:15:48;;;;;;;7.85;5.82;;;18.60;53.00;;;;;;5018249;28;20200;-81
2023/04/17 00:18:16;;;;;;;7.57;6.00;;;18.60;52.90;;;;;;5016568;28;20626;-81
2023/04/17 00:20:42;;;;;;;6.78;6.07;;;18.60;52.80;;;;;;5016387;28;20280;-81
2023/04/17 00:23:09;;;;;;;6.95;6.22;;;18.60;52.70;;;;;;5000703;28;20232;-81
2023/04/17 00:25:36;;;;;;;7.30;5.70;;;18.60;52.70;;;;;;5017035;28;20199;-81
2023/04/17 00:28:04;;;;;;;6.45;5.65;;;18.60;52.60;;;;;;5017001;28;20208;-79
2023/04/17 00:30:32;;;;;;;7.45;5.85;;;18.60;52.50;;;;;;5000721;28;20201;-79
2023/04/17 00:33:00;;;;;;;6.80;5.88;;;18.60;52.50;;;;;;5016813;28;20765;-80
2023/04/17 00:35:27;;;;;;;6.07;5.47;;;18.60;52.50;;;;;;5000951;28;20651;-80
2023/04/17 00:37:54;;;;;;;6.40;5.65;;;18.60;52.50;;;;;;5016391;28;20200;-80
2023/04/17 00:40:21;;;;;;;6.50;5.70;;;18.50;52.40;;;;;;5016139;28;20303;-80
2023/04/17 00:42:51;;;;;;;7.10;6.10;;;18.50;52.40;;;;;;5015820;28;20271;-80
2023/04/17 00:45:20;;;;;;;7.22;6.43;;;18.50;52.40;;;;;;5016075;28;20228;-80
2023/04/17 00:47:49;;;;;;;6.95;5.82;;;18.50;52.30;;;;;;5015932;28;20220;-80
2023/04/17 00:50:17;;;;;;;6.57;5.57;;;18.50;52.20;;;;;;5016224;28;20201;-80
2023/04/17 00:52:44;;;;;;;6.72;5.65;;;18.50;52.10;;;;;;5016123;28;20219;-80
2023/04/17 00:55:12;;;;;;;6.38;5.40;;;18.50;52.10;;;;;;4999778;28;20284;-80
2023/04/17 00:57:39;;;;;;;6.07;5.45;;;18.50;52.10;;;;;;5016312;28;20655;-80
2023/04/17 01:00:09;;;;;;;6.13;5.47;;;18.50;52.00;;;;;;5015982;28;20229;-81
2023/04/17 01:02:36;;;;;;;6.53;5.82;;;18.50;52.10;;;;;;5016301;28;20241;-81
2023/04/17 01:05:05;;;;;;;7.35;5.68;;;18.50;52.20;;;;;;5016499;28;20226;-81
2023/04/17 01:07:32;;;;;;;6.88;5.70;;;18.40;52.10;;;;;;5016191;28;20205;-81
2023/04/17 01:10:00;;;;;;;6.28;5.47;;;18.40;52.10;;;;;;5016475;28;20722;-81
2023/04/17 01:12:27;;;;;;;6.35;5.47;;;18.40;52.20;;;;;;5015335;28;20221;-81
2023/04/17 01:14:55;;;;;;;5.78;5.25;;;18.40;52.20;;;;;;4999559;28;20251;-81
2023/04/17 01:17:22;;;;;;;6.13;5.53;;;18.40;52.20;;;;;;5015441;28;20193;-81
2023/04/17 01:19:50;;;;;;;6.45;5.47;;;18.40;52.20;;;;;;5014845;28;20687;-81
2023/04/17 01:22:19;;;;;;;6.38;5.78;;;18.40;52.20;;;;;;5015242;28;20598;-81
2023/04/17 01:24:49;;;;;;;6.00;5.43;;;18.30;52.20;;;;;;5015921;28;20193;-81
2023/04/17 01:27:16;;;;;;;6.80;5.82;;;18.40;52.20;;;;;;5015276;28;20275;-81
2023/04/17 01:29:46;;;;;;;6.45;5.72;;;18.30;52.20;;;;;;5015464;28;20280;-81
2023/04/17 01:32:13;;;;;;;6.63;5.13;;;18.30;52.20;;;;;;5014898;28;20212;-81
2023/04/17 01:34:41;;;;;;;6.70;5.90;;;18.30;52.30;;;;;;5015461;28;20668;-81
2023/04/17 01:37:08;;;;;;;6.15;5.55;;;18.30;52.30;;;;;;5015659;28;20196;-81
2023/04/17 01:39:36;;;;;;;6.05;5.45;;;18.30;52.20;;;;;;5015631;28;20203;-81
2023/04/17 01:42:05;;;;;;;6.40;5.63;;;18.30;52.30;;;;;;5015120;28;20275;-81
2023/04/17 01:44:32;;;;;;;6.53;5.93;;;18.30;52.30;;;;;;5015541;28;20216;-81
2023/04/17 01:46:59;;;;;;;6.30;5.70;;;18.30;52.30;;;;;;5015074;28;20219;-81
2023/04/17 01:49:27;;;;;;;5.53;5.03;;;18.30;52.90;;;;;;5015164;28;20200;-81
2023/04/17 01:51:54;;;;;;;6.85;5.68;;;18.30;52.20;;;;;;5014757;28;20246;-81
2023/04/17 01:54:23;;;;;;;5.93;5.30;;;18.30;52.10;;;;;;5014724;28;20255;-81
2023/04/17 01:56:51;;;;;;;6.03;5.43;;;18.30;52.00;;;;;;5017232;28;20197;-81
2023/04/17 01:59:20;;;;;;;6.32;5.57;;;18.30;51.80;;;;;;5018292;28;20541;-81
2023/04/17 02:01:49;;;;;;;5.82;5.22;;;18.30;51.70;;;;;;5015128;28;20300;-81
2023/04/17 02:04:17;;;;;;;6.60;6.00;;;18.30;51.50;;;;;;5014978;28;20200;-81
2023/04/17 02:06:43;;;;;;;6.82;6.13;;;18.30;51.50;;;;;;5017663;28;20202;-81
2023/04/17 02:09:10;;;;;;;6.40;5.80;;;18.30;51.50;;;;;;5015186;28;20220;-81
2023/04/17 02:11:39;;;;;;;5.93;5.32;;;18.30;51.40;;;;;;5016062;28;20217;-81
2023/04/17 02:14:06;;;;;;;6.20;5.60;;;18.30;51.20;;;;;;5031420;28;20265;-81
2023/04/17 02:16:36;;;;;;;6.40;5.35;;;18.30;51.20;;;;;;5015601;28;20220;-81
2023/04/17 02:19:03;;;;;;;6.07;5.47;;;18.30;51.20;;;;;;5014856;28;20272;-81
2023/04/17 02:21:31;;;;;;;6.32;5.72;;;18.30;51.20;;;;;;5014681;28;20308;-81
2023/04/17 02:23:57;;;;;;;6.25;5.68;;;18.30;51.20;;;;;;5015576;28;20687;-81
2023/04/17 02:26:28;;;;;;;6.03;5.43;;;18.30;51.20;;;;;;5017465;28;20575;-81
2023/04/17 02:28:55;;;;;;;6.28;5.68;;;18.30;51.20;;;;;;5026342;28;20281;-81
2023/04/17 02:31:22;;;;;;;6.07;5.47;;;18.30;51.20;;;;;;5036456;28;20211;-81
2023/04/17 02:33:51;;;;;;;6.40;5.80;;;18.30;51.20;;;;;;5038840;28;20208;-81
2023/04/17 02:36:18;;;;;;;7.40;6.25;;;18.30;51.10;;;;;;5038825;28;20189;-81
2023/04/17 02:38:46;;;;;;;6.35;5.75;;;18.30;51.10;;;;;;5038676;28;20283;-81
2023/04/17 02:41:13;;;;;;;6.13;5.53;;;18.30;51.20;;;;;;5020699;28;20660;-81
2023/04/17 02:43:41;;;;;;;6.63;5.78;;;18.30;51.20;;;;;;5014515;28;20282;-81
2023/04/17 02:46:10;;;;;;;6.32;5.72;;;18.30;51.30;;;;;;5014333;28;20569;-81
2023/04/17 02:48:36;;;;;;;6.40;5.70;;;18.30;51.30;;;;;;5014206;28;20246;-81
2023/04/17 02:51:05;;;;;;;6.32;5.75;;;18.30;51.20;;;;;;5014056;28;20255;-81
2023/04/17 02:53:32;;;;;;;6.45;5.85;;;18.20;51.10;;;;;;5014742;28;20283;-81
2023/04/17 02:55:59;;;;;;;6.68;6.07;;;18.30;51.20;;;;;;5015219;28;20657;-81
2023/04/17 02:58:27;;;;;;;6.30;5.70;;;18.30;51.20;;;;;;5014402;28;20193;-81
2023/04/17 03:01:00;;;;;;;6.32;5.72;;;18.20;51.10;;;;;;5013922;28;20224;-81
2023/04/17 03:03:33;;;;;;;6.13;5.53;;;18.30;51.10;;;;;;4997761;28;20629;-80
2023/04/17 03:06:06;;;;;;;6.95;6.07;;;18.20;51.00;;;;;;5014088;28;20267;-80
2023/04/17 03:08:37;;;;;;;6.22;5.63;;;18.20;51.00;;;;;;5013818;28;20389;-80
2023/04/17 03:11:05;;;;;;;6.80;5.72;;;18.30;51.00;;;;;;5014475;28;20193;-80
2023/04/17 03:13:34;;;;;;;6.05;5.18;;;18.30;50.90;;;;;;5013795;28;20695;-80
2023/04/17 03:16:02;;;;;;;6.18;5.65;;;18.30;51.00;;;;;;5014154;28;20205;-81
2023/04/17 03:18:29;;;;;;;6.60;5.90;;;18.30;51.00;;;;;;4997358;28;20574;-81
2023/04/17 03:23:49;;;;;;;5.82;5.32;;;18.30;51.10;;;;;;5011260;28;20286;-80
2023/04/17 03:26:18;;;;;;;6.75;6.13;;;18.30;51.00;;;;;;5016084;28;20192;-80
2023/04/17 03:28:45;;;;;;;6.45;5.82;;;18.30;51.00;;;;;;5015549;28;20576;-80
2023/04/17 03:31:13;;;;;;;5.28;4.78;;;18.30;51.00;;;;;;5016244;28;20193;-82
2023/04/17 03:33:41;;;;;;;6.03;5.43;;;18.30;51.10;;;;;;5015603;28;20224;-80
2023/04/17 03:36:08;;;;;;;6.40;5.80;;;18.30;51.20;;;;;;5015820;28;20729;-82
2023/04/17 03:38:36;;;;;;;7.53;6.20;;;18.30;51.00;;;;;;5000017;28;20197;-80
2023/04/17 03:41:06;;;;;;;5.65;5.15;;;18.40;50.90;;;;;;5015143;28;20212;-81
2023/04/17 03:43:33;;;;;;;5.72;5.22;;;18.40;50.80;;;;;;5018363;28;20710;-81
2023/04/17 03:46:00;;;;;;;5.80;5.30;;;18.50;50.80;;;;;;5019707;28;20197;-81
2023/04/17 03:48:29;;;;;;;6.15;5.65;;;18.40;50.50;;;;;;5020228;28;20197;-81
2023/04/17 03:50:56;;;;;;;6.60;6.00;;;18.50;50.50;;;;;;5019767;28;20227;-81
2023/04/17 03:53:23;;;;;;;5.82;5.32;;;18.50;50.50;;;;;;5019598;28;20240;-81
2023/04/17 03:55:51;;;;;;;5.97;5.38;;;18.50;50.90;;;;;;5019987;28;20220;-81
2023/04/17 03:58:26;;;;;;;5.85;5.25;;;18.50;50.30;;;;;;5019962;28;20691;-81
2023/04/17 04:00:54;;;;;;;6.07;5.47;;;18.60;50.30;;;;;;5021200;28;20197;-81
2023/04/17 04:03:22;;;;;;;5.75;5.15;;;18.60;50.30;;;;;;5021808;28;20220;-81
2023/04/17 04:05:49;;;;;;;6.47;5.88;;;18.50;50.10;;;;;;5022234;28;20207;-81
2023/04/17 04:08:17;;;;;;;6.38;5.78;;;18.50;50.20;;;;;;5020401;28;20219;-82
2023/04/17 04:10:48;;;;;;;6.30;5.70;;;18.50;50.30;;;;;;5020068;28;20197;-81
2023/04/17 04:13:21;;;;;;;6.55;5.95;;;18.50;50.30;;;;;;5020136;28;20239;-82
2023/04/17 04:15:56;;;;;;;6.10;5.50;;;18.50;50.30;;;;;;5006250;28;20251;-82
2023/04/17 04:18:26;;;;;;;6.60;5.78;;;18.50;50.20;;;;;;5021838;28;20212;-81
2023/04/17 04:20:54;;;;;;;5.82;5.18;;;18.50;50.10;;;;;;5021013;28;20306;-81
2023/04/17 04:23:29;;;;;;;6.25;5.65;;;18.60;50.10;;;;;;5020663;28;20224;-81
2023/04/17 04:25:56;;;;;;;5.97;5.47;;;18.50;49.90;;;;;;5020899;28;20197;-82
2023/04/17 04:28:31;;;;;;;6.78;5.63;;;18.60;50.00;;;;;;5019824;28;20223;-81
2023/04/17 04:31:01;;;;;;;6.22;5.63;;;18.60;49.90;;;;;;5035186;28;20663;-82
2023/04/17 04:33:34;;;;;;;6.30;5.70;;;18.50;49.80;;;;;;5018085;28;20215;-83
2023/04/17 04:36:02;;;;;;;6.15;5.55;;;18.60;49.80;;;;;;5017401;28;20205;-82
2023/04/17 04:38:31;;;;;;;4.63;4.22;;;18.60;50.10;;;;;;5017215;28;20224;-82
2023/04/17 04:41:09;;;;;;;6.30;5.70;;;18.50;50.30;;;;;;5017988;28;20216;-82
2023/04/17 04:43:36;;;;;;;6.82;6.10;;;18.60;50.20;;;;;;5017155;28;20228;-82
2023/04/17 04:46:07;;;;;;;6.88;6.25;;;18.60;50.80;;;;;;5018725;28;20193;-83
2023/04/17 04:48:38;;;;;;;6.22;5.63;;;18.60;51.50;;;;;;5017689;28;20567;-84
2023/04/17 04:51:06;;;;;;;6.18;5.68;;;18.60;51.50;;;;;;5017036;28;20222;-82
2023/04/17 04:53:34;;;;;;;6.47;5.82;;;18.60;50.80;;;;;;5017788;28;20292;-81
2023/04/17 04:56:02;;;;;;;9.82;6.45;;;18.60;51.10;;;;;;5016780;28;20291;-81
2023/04/17 04:58:30;;;;;;;6.60;5.97;;;18.60;51.20;;;;;;5016668;28;20196;-82
2023/04/17 05:01:00;;;;;;;6.50;5.90;;;18.60;52.00;;;;;;5016942;28;20316;-81
2023/04/17 05:03:36;;;;;;;6.68;5.97;;;18.60;51.50;;;;;;5015830;28;20334;-81
2023/04/17 05:06:04;;;;;;;6.47;5.80;;;18.70;51.20;;;;;;5016409;28;20197;-81
2023/04/17 05:08:39;;;;;;;6.18;5.57;;;18.60;51.50;;;;;;5016250;28;20254;-82
2023/04/17 05:11:11;;;;;;;6.50;5.90;;;18.70;51.40;;;;;;5016477;28;20536;-81
2023/04/17 05:13:38;;;;;;;5.95;5.45;;;18.80;51.30;;;;;;5032816;28;20224;-81
2023/04/17 05:16:09;;;;;;;7.15;5.60;;;18.70;50.80;;;;;;5016182;28;20201;-82
2023/04/17 05:18:38;;;;;;;6.45;5.85;;;18.70;50.60;;;;;;5020126;28;20572;-83
2023/04/17 05:21:07;;;;;;;6.65;6.05;;;18.70;50.60;;;;;;5016802;28;20200;-84
2023/04/17 05:23:34;;;;;;;6.10;5.50;;;18.70;50.40;;;;;;5032969;28;20256;-84
2023/04/17 05:26:01;;;;;;;5.75;5.18;;;18.80;50.30;;;;;;5016085;28;20288;-84
2023/04/17 05:28:29;;;;;;;6.63;5.93;;;18.70;50.30;;;;;;5015684;28;20208;-84
2023/04/17 05:30:57;;;;;;;7.00;6.40;;;18.70;50.30;;;;;;5015484;28;20283;-84
2023/04/17 05:33:35;;;;;;;5.72;5.22;;;18.70;50.30;;;;;;5016204;28;20582;-83
2023/04/17 05:36:07;;;;;;;6.38;5.78;;;18.70;50.20;;;;;;5016349;28;20573;-82
2023/04/17 05:38:37;;;;;;;6.32;5.72;;;18.70;50.20;;;;;;5016709;28;20223;-82
2023/04/17 05:41:07;;;;;;;6.50;5.80;;;18.70;50.10;;;;;;5016217;28;20232;-83
2023/04/17 05:43:34;;;;;;;6.28;5.65;;;18.70;50.10;;;;;;5015414;28;20229;-79
2023/04/17 05:46:01;;;;;;;6.93;5.60;;;18.80;50.00;;;;;;5015264;28;20196;-79
2023/04/17 05:48:28;;;;;;;6.63;6.00;;;18.80;50.00;;;;;;4999742;28;20196;-79
2023/04/17 05:50:56;;;;;;;5.90;5.40;;;18.80;49.60;;;;;;5015427;28;20632;-79
2023/04/17 05:53:24;;;;;;;6.22;5.63;;;18.80;49.80;;;;;;5015988;28;20266;-79
2023/04/17 05:55:56;;;;;;;5.65;5.18;;;18.80;49.80;;;;;;5016508;28;20579;-79
2023/04/17 05:58:24;;;;;;;6.38;5.78;;;18.80;50.00;;;;;;5015431;28;20197;-79
2023/04/17 06:00:55;;;;;;;6.53;5.93;;;18.80;49.90;;;;;;5015315;28;20208;-79
2023/04/17 06:03:24;;;;;;;6.15;5.55;;;18.90;49.90;;;;;;4998983;28;20228;-78
2023/04/17 06:05:59;;;;;;;6.07;5.55;;;18.90;49.90;;;;;;5014770;28;20196;-78
2023/04/17 06:08:27;;;;;;;6.20;5.60;;;18.90;49.70;;;;;;4998633;28;20201;-78
2023/04/17 06:10:55;;;;;;;6.43;5.80;;;18.90;49.70;;;;;;5014448;28;20220;-78
2023/04/17 06:13:23;;;;;;;5.78;5.28;;;18.90;49.70;;;;;;5014614;28;20221;-78
2023/04/17 06:15:50;;;;;;;5.93;5.38;;;18.90;49.70;;;;;;5014314;28;20200;-79
2023/04/17 06:18:17;;;;;;;6.32;5.55;;;19.00;49.40;;;;;;5014463;28;20570;-79
2023/04/17 06:20:45;;;;;;;5.65;5.15;;;19.10;49.50;;;;;;5013951;28;20197;-79
2023/04/17 06:23:12;;;;;;;5.53;5.03;;;19.10;49.20;;;;;;5014036;28;20256;-79
2023/04/17 06:25:41;;;;;;;6.22;5.63;;;19.20;49.00;;;;;;5014301;28;20227;-79
2023/04/17 06:28:09;;;;;;;6.43;5.28;;;19.20;48.80;;;;;;5014362;28;20208;-79
2023/04/17 06:30:36;;;;;;;5.78;5.28;;;19.20;48.80;;;;;;4997927;28;20242;-79
2023/04/17 06:33:04;;;;;;;6.60;5.45;;;19.30;48.80;;;;;;5014255;28;20213;-79
2023/04/17 06:35:33;;;;;;;6.20;5.60;;;19.20;48.70;;;;;;5014559;28;20299;-79
2023/04/17 06:38:15;;;;;;;5.70;5.20;;;19.20;48.70;;;;;;5014820;28;20525;-79
2023/04/17 06:40:45;;;;;;;6.13;5.40;;;19.30;48.60;;;;;;5015168;28;20255;-79
2023/04/17 06:43:12;;;;;;;5.80;5.20;;;19.30;48.60;;;;;;5014668;28;20251;-79
2023/04/17 06:45:41;;;;;;;6.00;5.50;;;19.30;48.40;;;;;;5014258;28;20283;-79
2023/04/17 06:48:08;;;;;;;5.95;5.40;;;19.30;48.50;;;;;;5015270;28;20204;-79
2023/04/17 06:50:36;;;;;;;5.50;5.00;;;19.30;48.30;;;;;;5014157;28;20258;-79
2023/04/17 06:53:03;;;;;;;5.90;5.40;;;19.30;48.40;;;;;;4997693;28;20280;-79
2023/04/17 06:55:30;;;;;;;5.15;4.75;;;19.30;48.30;;;;;;5014439;28;20211;-79
2023/04/17 06:57:59;;;;;;;5.22;4.72;;;19.30;48.50;;;;;;5013905;28;20566;-79
2023/04/17 07:00:27;;;;;;;5.78;5.18;;;19.30;48.30;;;;;;5014123;28;20659;-79
2023/04/17 07:02:54;;;;;;;6.03;5.47;;;19.30;48.30;;;;;;5013817;28;20287;-79
2023/04/17 07:05:21;;;;;;;6.07;5.47;;;19.30;48.30;;;;;;5014628;28;20292;-79
2023/04/17 07:07:49;;;;;;;5.75;5.25;;;19.40;48.40;;;;;;5013883;28;20618;-79
2023/04/17 07:10:18;;;;;;;5.80;5.30;;;19.40;48.30;;;;;;5014163;28;20255;-79
2023/04/17 07:12:45;;;;;;;5.60;5.00;;;19.40;48.30;;;;;;5013712;28;20219;-79
2023/04/17 07:15:15;;;;;;;5.97;5.05;;;19.30;48.20;;;;;;5014475;28;20296;-79
2023/04/17 07:17:42;;;;;;;6.28;5.68;;;19.40;49.00;;;;;;5014659;28;20256;-79
2023/04/17 07:20:10;;;;;;;5.80;5.28;;;19.30;48.10;;;;;;5015398;28;20205;-79
2023/04/17 07:22:37;;;;;;;6.50;5.88;;;19.30;48.10;;;;;;5014577;28;20221;-79
2023/04/17 07:25:06;;;;;;;5.68;5.18;;;19.40;48.20;;;;;;5013908;28;20205;-79
2023/04/17 07:27:33;;;;;;;5.60;5.00;;;19.40;48.80;;;;;;5014366;28;20201;-79
2023/04/17 07:30:00;;;;;;;5.35;4.80;;;19.40;48.10;;;;;;4997810;28;20200;-79
2023/04/17 07:32:29;;;;;;;5.50;5.00;;;19.40;48.10;;;;;;5014189;28;20761;-79
2023/04/17 07:34:56;;;;;;;5.35;4.95;;;19.40;48.20;;;;;;5013840;28;20201;-79
2023/04/17 07:37:23;;;;;;;5.50;5.00;;;19.40;48.10;;;;;;5013674;28;20224;-79
2023/04/17 07:39:51;;;;;;;6.07;5.00;;;19.40;48.00;;;;;;5014797;28;20223;-79
2023/04/17 07:42:18;;;;;;;5.40;4.90;;;19.40;48.10;;;;;;5013591;28;20274;-79
2023/04/17 07:44:46;;;;;;;6.00;5.00;;;19.40;48.20;;;;;;5013903;28;20200;-79
2023/04/17 07:47:13;;;;;;;5.32;4.82;;;19.40;48.20;;;;;;5016070;28;20195;-79
2023/04/17 07:49:45;;;;;;;4.95;4.47;;;19.40;48.10;;;;;;5013855;28;20200;-79
2023/04/17 07:52:14;;;;;;;4.85;4.45;;;19.40;48.10;;;;;;4999231;28;20320;-79
2023/04/17 07:54:41;;;;;;;4.97;4.43;;;19.40;48.00;;;;;;5014234;28;20197;-79
2023/04/17 07:57:08;;;;;;;5.00;4.50;;;19.40;48.00;;;;;;5014011;28;20208;-79
2023/04/17 07:59:36;;;;;;;5.00;4.43;;;19.40;47.90;;;;;;5014225;28;20200;-80
2023/04/17 08:02:03;;;;;;;4.78;4.38;;;19.40;47.90;;;;;;5013857;28;20259;-80
2023/04/17 08:04:31;;;;;;;5.45;4.82;;;19.40;47.80;;;;;;5013634;28;20284;-80
2023/04/17 08:07:00;;;;;;;5.57;4.95;;;19.40;47.90;;;;;;5013658;28;20207;-80
2023/04/17 08:09:29;;;;;;;4.93;4.53;;;19.40;47.90;;;;;;5032365;28;20204;-80
2023/04/17 08:11:56;;;;;;;5.00;4.20;;;19.50;47.80;;;;;;5014765;28;20201;-80
2023/04/17 08:14:23;;;;;;;6.07;4.57;;;19.50;47.90;;;;;;5014082;28;20218;-80
2023/04/17 08:16:50;;;;;;;5.05;4.65;;;19.50;47.90;;;;;;5014550;28;20193;-80
2023/04/17 08:19:18;;;;;;;5.28;4.78;;;19.50;47.90;;;;;;5013983;28;20193;-80
2023/04/17 08:21:47;;;;;;;5.03;4.63;;;19.50;47.80;;;;;;5015552;28;20235;-80
2023/04/17 08:24:16;;;;;;;4.70;4.30;;;19.50;47.70;;;;;;5016159;28;20227;-80
2023/04/17 08:26:43;;;;;;;5.63;5.10;;;19.50;47.80;;;;;;5015974;28;20691;-80
2023/04/17 08:29:11;;;;;;;5.03;4.50;;;19.50;47.90;;;;;;5014208;28;20212;-80
2023/04/17 08:31:39;;;;;;;5.55;5.00;;;19.50;48.00;;;;;;5017305;28;20232;-80
2023/04/17 08:34:06;;;;;;;4.55;4.15;;;19.50;47.90;;;;;;5000371;28;20216;-80
2023/04/17 08:36:33;;;;;;;4.70;4.30;;;19.50;47.90;;;;;;5016414;28;20232;-80
2023/04/17 08:39:00;;;;;;;4.40;4.00;;;19.50;47.80;;;;;;5032904;28;20200;-80
2023/04/17 08:41:33;;;;;;;5.32;4.82;;;19.50;47.70;;;;;;5017248;28;20247;-80
2023/04/17 08:44:00;;;;;;;4.90;4.47;;;19.50;47.70;;;;;;5016278;28;20220;-80
2023/04/17 08:46:27;;;;;;;4.45;4.07;;;19.50;47.80;;;;;;5016917;28;20545;-80
2023/04/17 08:48:55;;;;;;;5.05;4.50;;;19.60;47.90;;;;;;5000078;28;20219;-80
2023/04/17 08:51:25;;;;;;;4.57;4.18;;;19.60;47.80;;;;;;5000202;28;20578;-80
2023/04/17 08:53:52;;;;;;;4.30;3.90;;;19.60;47.90;;;;;;5016437;28;20679;-80
2023/04/17 08:56:20;;;;;;;4.40;4.00;;;19.60;47.80;;;;;;5016322;28;20217;-80
2023/04/17 08:58:48;;;;;;;4.70;4.30;;;19.60;47.80;;;;;;5016420;28;20539;-80
2023/04/17 09:01:17;;;;;;;4.30;3.90;;;19.60;47.80;;;;;;5016532;28;20212;-80
2023/04/17 09:03:45;;;;;;;4.25;3.85;;;19.50;47.70;;;;;;5016082;28;20270;-80
2023/04/17 09:06:12;;;;;;;4.38;3.97;;;19.60;47.80;;;;;;5016317;28;20201;-80
2023/04/17 09:08:40;;;;;;;4.35;3.95;;;19.60;47.80;;;;;;5016271;28;20200;-80
2023/04/17 09:11:16;;;;;;;4.13;3.72;;;19.60;47.80;;;;;;5016196;28;20216;-80
2023/04/17 09:13:43;;;;;;;3.90;3.30;;;19.60;47.70;;;;;;5016135;28;20737;-80
2023/04/17 09:16:14;;;;;;;4.07;3.78;;;19.60;47.60;;;;;;5015847;28;20626;-80
2023/04/17 09:18:43;;;;;;;4.10;3.80;;;19.70;47.70;;;;;;5017243;28;20242;-80
2023/04/17 09:21:10;;;;;;;4.28;3.88;;;19.70;47.60;;;;;;5017425;28;20229;-80
2023/04/17 09:23:49;;;;;;;3.83;3.53;;;19.70;47.50;;;;;;5000826;28;20311;-80
2023/04/17 09:26:17;;;;;;;4.00;3.60;;;19.70;47.60;;;;;;5017134;28;20655;-80
2023/04/17 09:29:02;;;;;;;3.80;3.50;;;19.70;47.50;;;;;;5000229;28;20196;-79
2023/04/17 09:31:33;;;;;;;3.53;3.25;;;19.70;47.50;;;;;;5015674;28;20226;-79
2023/04/17 09:34:01;;;;;;;3.92;3.53;;;19.70;47.60;;;;;;5000167;28;20212;-79
2023/04/17 09:36:30;;;;;;;3.50;3.20;;;19.70;47.60;;;;;;5015421;28;20204;-79
2023/04/17 09:38:58;;;;;;;3.47;3.25;;;19.70;47.60;;;;;;5015772;28;20220;-79
2023/04/17 09:41:26;;;;;;;3.63;3.33;;;19.70;47.50;;;;;;5016066;28;20296;-80
2023/04/17 09:43:54;;;;;;;3.78;3.47;;;19.80;47.50;;;;;;5016219;28;20328;-80
2023/04/17 09:46:34;;;;;;;3.60;3.30;;;19.80;47.40;;;;;;5015993;28;20721;-80
2023/04/17 09:49:03;;;;;;;3.35;3.05;;;19.80;47.40;;;;;;5017037;28;20678;-80
2023/04/17 09:51:30;;;;;;;3.67;3.38;;;19.80;47.30;;;;;;5017188;28;20252;-80
2023/04/17 09:53:58;;;;;;;3.40;3.13;;;19.80;47.20;;;;;;5016022;28;20213;-80
2023/04/17 09:56:26;;;;;;;3.63;3.33;;;19.80;47.20;;;;;;5016468;28;20209;-80
2023/04/17 09:58:54;;;;;;;3.25;3.00;;;19.80;47.20;;;;;;4999905;28;20204;-80
2023/04/17 10:01:21;;;;;;;3.40;3.10;;;19.80;47.20;;;;;;5015949;28;20200;-80
2023/04/17 10:03:50;;;;;;;3.08;2.88;;;19.80;47.30;;;;;;5016961;28;20239;-80
2023/04/17 10:06:16;;;;;;;3.20;2.90;;;19.80;47.30;;;;;;5019158;28;20197;-80
2023/04/17 10:08:43;;;;;;;3.45;3.15;;;19.80;47.30;;;;;;5003520;28;20200;-79
2023/04/17 10:11:11;;;;;;;3.58;3.28;;;19.80;47.30;;;;;;5020136;28;20223;-79
2023/04/17 10:13:39;;;;;;;3.25;2.95;;;19.70;47.30;;;;;;5017273;28;20224;-79
2023/04/17 10:16:07;;;;;;;5.13;3.47;;;19.70;47.40;;;;;;5017512;28;20201;-79
2023/04/17 10:18:34;;;;;;;4.07;3.10;;;19.70;47.20;;;;;;5033416;28;20204;-79
2023/04/17 10:21:27;;;;;;;3.30;3.10;;;19.60;47.30;;;;;;5017115;28;20268;-79
2023/04/17 10:23:53;;;;;;;3.85;3.20;;;19.60;47.40;;;;;;5014515;28;20761;-79
2023/04/17 10:26:40;;;;;;;3.58;3.28;;;19.60;48.10;;;;;;5014800;28;20204;-80
2023/04/17 10:29:07;;;;;;;3.53;3.20;;;19.60;47.50;;;;;;5015836;28;20201;-80
2023/04/17 10:32:15;;;;;;;3.35;3.05;;;19.70;47.30;;;;;;5016520;28;20248;-80
2023/04/17 10:34:42;;;;;;;3.08;2.88;;;19.70;47.20;;;;;;5015449;28;20188;-80
2023/04/17 10:37:14;;;;;;;3.60;3.30;;;19.80;47.20;;;;;;5015576;28;20196;-80
2023/04/17 10:39:55;;;;;;;3.58;3.28;;;19.80;47.10;;;;;;5015279;28;20193;-80
2023/04/17 10:42:24;;;;;;;3.35;3.05;;;19.80;46.90;;;;;;5015779;28;20228;-80
2023/04/17 10:44:56;;;;;;;3.20;2.90;;;19.80;46.90;;;;;;5014876;28;20311;-80
2023/04/17 10:47:30;;;;;;;3.35;3.05;;;19.80;46.80;;;;;;4998777;28;20204;-80
2023/04/17 10:49:58;;;;;;;3.50;3.20;;;19.80;46.80;;;;;;5014817;28;20701;-80
2023/04/17 10:52:40;;;;;;;3.70;3.40;;;19.90;46.90;;;;;;5015802;28;20771;-80
2023/04/17 10:55:09;;;;;;;3.03;2.80;;;19.80;46.80;;;;;;5014863;28;20224;-80
2023/04/17 10:57:56;;;;;;;3.22;2.92;;;19.90;46.90;;;;;;5014425;28;20197;-80
2023/04/17 11:00:33;;;;;;;3.10;2.80;;;19.90;46.90;;;;;;5015359;28;20189;-80
2023/04/17 11:03:01;;;;;;;2.85;2.63;;;19.90;46.80;;;;;;5014404;28;20243;-80
2023/04/17 11:05:30;;;;;;;2.95;2.75;;;19.90;46.60;;;;;;5014048;28;20263;-80
2023/04/17 11:07:59;;;;;;;2.85;2.65;;;19.90;46.60;;;;;;5014911;28;20201;-80
2023/04/17 11:10:26;;;;;;;3.00;2.80;;;20.00;46.70;;;;;;5030902;28;20232;-80
2023/04/17 11:12:55;;;;;;;2.85;2.65;;;20.00;46.60;;;;;;5014380;28;20232;-80
2023/04/17 11:15:26;;;;;;;2.85;2.65;;;20.00;46.60;;;;;;5013739;28;20193;-80
2023/04/17 11:17:54;;;;;;;2.92;2.63;;;20.00;46.40;;;;;;5014558;28;20517;-80
2023/04/17 11:20:22;;;;;;;2.85;2.65;;;20.00;46.30;;;;;;5014016;28;20487;-80
2023/04/17 11:22:49;;;;;;;3.22;2.50;;;20.00;46.40;;;;;;5014055;28;20230;-80
2023/04/17 11:25:22;;;;;;;2.45;2.25;;;20.10;46.40;;;;;;5014322;28;20355;-80
2023/04/17 11:27:55;;;;;;;2.72;2.53;;;20.10;46.30;;;;;;5013573;28;20216;-80
2023/04/17 11:30:27;;;;;;;2.80;2.60;;;20.10;46.30;;;;;;5013535;28;20201;-80
2023/04/17 11:32:54;;;;;;;2.75;2.55;;;20.10;46.10;;;;;;5013788;28;20228;-80
2023/04/17 11:35:27;;;;;;;2.50;2.30;;;20.10;46.20;;;;;;5014871;28;20188;-79
2023/04/17 11:38:05;;;;;;;2.97;2.67;;;20.20;46.30;;;;;;5014118;28;20197;-79
2023/04/17 11:40:34;;;;;;;4.03;2.50;;;20.20;46.00;;;;;;5013163;28;20228;-79
2023/04/17 11:43:07;;;;;;;2.67;2.47;;;20.20;46.10;;;;;;5013633;28;20271;-79
2023/04/17 11:45:34;;;;;;;2.80;2.60;;;20.20;46.10;;;;;;5013906;28;20594;-79
2023/04/17 11:48:02;;;;;;;2.80;2.60;;;20.20;46.00;;;;;;5013597;28;20247;-79
2023/04/17 11:50:29;;;;;;;2.72;2.53;;;20.30;46.10;;;;;;5013250;28;20229;-79
2023/04/17 11:52:58;;;;;;;2.80;2.60;;;20.30;46.00;;;;;;5013716;28;20231;-79
2023/04/17 11:55:29;;;;;;;2.80;2.60;;;20.30;46.60;;;;;;5013298;28;20247;-79
2023/04/17 11:57:58;;;;;;;2.55;2.35;;;20.30;46.00;;;;;;5013137;28;20231;-79
2023/04/17 12:00:28;;;;;;;2.38;2.20;;;20.40;46.00;;;;;;5013348;28;20262;-79
2023/04/17 12:02:57;;;;;;;2.67;2.47;;;20.40;46.10;;;;;;5013653;28;20220;-79
2023/04/17 12:05:25;;;;;;;2.65;2.45;;;20.40;46.10;;;;;;5017229;28;20235;-79
2023/04/17 12:08:03;;;;;;;2.60;2.40;;;20.40;46.00;;;;;;5017664;28;20197;-79
2023/04/17 12:10:41;;;;;;;2.55;2.35;;;20.50;46.20;;;;;;5017796;28;20655;-79
2023/04/17 12:13:09;;;;;;;2.58;2.38;;;20.60;46.00;;;;;;5017270;28;20308;-79
2023/04/17 12:15:36;;;;;;;2.70;2.50;;;20.60;46.30;;;;;;5017936;28;20699;-79
2023/04/17 12:18:08;;;;;;;2.95;2.50;;;20.60;45.60;;;;;;5018397;28;20211;-80
2023/04/17 12:20:36;;;;;;;2.80;2.60;;;20.60;45.60;;;;;;5019574;28;20193;-80
2023/04/17 12:23:03;;;;;;;2.75;2.55;;;20.60;45.50;;;;;;5018252;28;20322;-80
2023/04/17 12:25:30;;;;;;;3.15;2.85;;;20.60;45.40;;;;;;5021197;28;20220;-80
2023/04/17 12:27:58;;;;;;;2.70;2.50;;;20.60;45.50;;;;;;4988642;28;20258;-80
2023/04/17 12:30:27;;;;;;;2.72;2.53;;;20.50;45.60;;;;;;5021378;28;20664;-80
2023/04/17 12:32:54;;;;;;;2.70;2.50;;;20.40;45.60;;;;;;5020664;28;20247;-80
2023/04/17 12:35:21;;;;;;;2.50;2.30;;;20.40;45.60;;;;;;5019880;28;20244;-79
2023/04/17 12:37:50;;;;;;;2.78;2.50;;;20.40;45.80;;;;;;5020255;28;20287;-79
2023/04/17 12:40:18;;;;;;;2.92;2.72;;;20.40;45.80;;;;;;5036502;28;20219;-79
2023/04/17 12:42:46;;;;;;;3.00;2.80;;;20.40;46.10;;;;;;5019967;28;20583;-79
2023/04/17 12:45:13;;;;;;;2.80;2.60;;;20.50;46.00;;;;;;5020178;28;20706;-79
2023/04/17 12:47:42;;;;;;;2.83;2.63;;;20.50;45.80;;;;;;5039383;28;20212;-79
2023/04/17 12:50:10;;;;;;;2.67;2.47;;;20.50;45.90;;;;;;5023989;28;20688;-79
2023/04/17 12:52:37;;;;;;;2.53;2.30;;;20.50;45.70;;;;;;5022660;28;20251;-79
2023/04/17 12:55:06;;;;;;;2.95;2.38;;;20.50;45.80;;;;;;5023129;28;20201;-79
2023/04/17 12:57:33;;;;;;;3.00;2.70;;;20.50;45.80;;;;;;5022384;28;20197;-79
2023/04/17 13:00:00;;;;;;;2.85;2.65;;;20.50;45.60;;;;;;5022027;28;20259;-79